createdAt,value
2018-09-10T00:02:03.946Z,19.73
2018-09-10T00:04:33.378Z,19.82
2018-09-10T00:07:02.794Z,19.79
2018-09-10T00:09:32.282Z,19.83
2018-09-10T00:12:01.848Z,19.89
2018-09-10T00:14:31.265Z,19.82
2018-09-10T00:17:00.685Z,19.78
2018-09-10T00:19:30.056Z,19.76
2018-09-10T00:21:59.436Z,19.72
2018-09-10T00:24:32.148Z,19.73
2018-09-10T00:27:01.902Z,19.73
2018-09-10T00:29:31.385Z,19.65
2018-09-10T00:32:00.758Z,19.68
2018-09-10T00:34:30.560Z,19.66
2018-09-10T00:36:59.947Z,19.59
2018-09-10T00:39:29.541Z,19.52
2018-09-10T00:41:58.954Z,19.46
2018-09-10T00:44:28.383Z,19.36
2018-09-10T00:46:58.810Z,19.33
2018-09-10T00:49:28.248Z,19.27
2018-09-10T00:51:57.712Z,19.20
2018-09-10T00:54:27.149Z,19.14
2018-09-10T00:56:56.727Z,19.06
2018-09-10T00:59:26.166Z,18.94
2018-09-10T01:01:55.829Z,18.92
2018-09-10T01:04:25.248Z,18.78
2018-09-10T01:06:54.685Z,18.69
2018-09-10T01:09:24.164Z,18.60
2018-09-10T01:11:53.649Z,18.58
2018-09-10T01:14:23.104Z,18.49
2018-09-10T01:16:52.559Z,18.53
2018-09-10T01:19:22.194Z,18.58
2018-09-10T01:21:51.658Z,18.51
2018-09-10T01:24:21.085Z,18.46
2018-09-10T01:26:50.662Z,18.56
2018-09-10T01:29:20.083Z,18.53
2018-09-10T01:31:49.721Z,18.52
2018-09-10T01:34:24.093Z,18.55
2018-09-10T01:36:53.730Z,18.46
2018-09-10T01:39:23.190Z,18.42
2018-09-10T01:41:52.650Z,18.43
2018-09-10T01:44:22.028Z,18.51
2018-09-10T01:46:51.493Z,18.51
2018-09-10T01:49:21.067Z,18.58
2018-09-10T01:51:50.682Z,18.56
2018-09-10T01:54:20.125Z,18.52
2018-09-10T01:56:50.016Z,18.52
2018-09-10T01:59:19.761Z,18.47
2018-09-10T02:01:49.851Z,18.42
2018-09-10T02:04:19.925Z,18.38
2018-09-10T02:06:49.414Z,18.39
2018-09-10T02:09:19.131Z,18.42
2018-09-10T02:11:48.910Z,18.38
2018-09-10T02:14:19.131Z,18.36
2018-09-10T02:16:48.597Z,18.30
2018-09-10T02:19:18.497Z,18.25
2018-09-10T02:21:48.334Z,18.34
2018-09-10T02:24:18.152Z,18.28
2018-09-10T02:26:47.531Z,18.28
2018-09-10T02:29:17.465Z,18.19
2018-09-10T02:31:47.111Z,18.21
2018-09-10T02:34:16.874Z,18.19
2018-09-10T02:36:46.747Z,18.14
2018-09-10T02:39:16.631Z,18.05
2018-09-10T02:41:46.247Z,18.02
2018-09-10T02:44:15.921Z,18.08
2018-09-10T02:46:45.783Z,18.10
2018-09-10T02:49:15.650Z,18.12
2018-09-10T02:51:45.288Z,18.12
2018-09-10T02:54:15.143Z,18.08
2018-09-10T02:56:44.863Z,18.07
2018-09-10T02:59:14.438Z,18.05
2018-09-10T03:01:44.119Z,18.11
2018-09-10T03:04:13.545Z,18.12
2018-09-10T03:06:43.201Z,18.12
2018-09-10T03:09:13.243Z,18.12
2018-09-10T03:11:42.922Z,18.12
2018-09-10T03:14:12.580Z,18.15
2018-09-10T03:16:42.265Z,18.20
2018-09-10T03:19:11.796Z,18.15
2018-09-10T03:21:41.511Z,18.11
2018-09-10T03:24:11.091Z,18.16
2018-09-10T03:26:40.760Z,18.12
2018-09-10T03:29:10.233Z,18.09
2018-09-10T03:31:39.785Z,18.09
2018-09-10T03:34:09.454Z,18.09
2018-09-10T03:36:39.215Z,18.10
2018-09-10T03:39:09.974Z,18.13
2018-09-10T03:41:39.739Z,18.11
2018-09-10T03:44:09.526Z,18.17
2018-09-10T03:46:39.091Z,18.10
2018-09-10T03:49:08.748Z,18.02
2018-09-10T03:51:38.359Z,18.03
2018-09-10T03:54:07.889Z,17.98
2018-09-10T03:56:37.458Z,17.97
2018-09-10T03:59:07.236Z,17.96
2018-09-10T04:01:36.757Z,17.97
2018-09-10T04:04:06.426Z,17.96
2018-09-10T04:06:36.063Z,18.04
2018-09-10T04:09:06.871Z,17.99
2018-09-10T04:11:36.324Z,18.01
2018-09-10T04:14:06.070Z,18.14
2018-09-10T04:16:35.782Z,18.09
2018-09-10T04:19:05.736Z,18.06
2018-09-10T04:21:35.534Z,18.05
2018-09-10T04:24:05.093Z,18.05
2018-09-10T04:26:34.808Z,18.16
2018-09-10T04:29:04.597Z,18.19
2018-09-10T04:31:34.525Z,18.16
2018-09-10T04:34:04.009Z,18.17
2018-09-10T04:36:33.595Z,18.18
2018-09-10T04:39:03.664Z,18.13
2018-09-10T04:41:43.944Z,18.19
2018-09-10T04:44:13.580Z,18.07
2018-09-10T04:46:43.334Z,18.18
2018-09-10T04:49:13.001Z,18.36
2018-09-10T04:51:42.768Z,19.04
2018-09-10T04:54:12.271Z,19.96
2018-09-10T04:56:41.823Z,20.85
2018-09-10T04:59:11.470Z,21.57
2018-09-10T05:01:41.020Z,22.21
2018-09-10T05:04:10.797Z,22.48
2018-09-10T05:06:40.291Z,22.80
2018-09-10T05:09:10.279Z,23.21
2018-09-10T05:11:39.896Z,23.28
2018-09-10T05:14:09.752Z,23.70
2018-09-10T05:16:39.440Z,23.87
2018-09-10T05:19:09.237Z,24.58
2018-09-10T05:21:38.981Z,24.80
2018-09-10T05:24:08.439Z,24.96
2018-09-10T05:26:38.339Z,25.43
2018-09-10T05:29:07.967Z,25.79
2018-09-10T05:31:37.689Z,26.47
2018-09-10T05:34:07.324Z,26.65
2018-09-10T05:36:37.038Z,26.62
2018-09-10T05:39:08.161Z,26.96
2018-09-10T05:41:38.000Z,27.17
2018-09-10T05:44:07.701Z,27.35
2018-09-10T05:46:37.452Z,27.30
2018-09-10T05:49:07.199Z,27.81
2018-09-10T05:51:36.704Z,27.97
2018-09-10T05:54:06.303Z,28.30
2018-09-10T05:56:35.900Z,28.10
2018-09-10T05:59:05.610Z,28.27
2018-09-10T06:01:35.347Z,29.58
2018-09-10T06:04:05.241Z,29.77
2018-09-10T06:06:35.142Z,29.71
2018-09-10T06:09:05.254Z,29.95
2018-09-10T06:11:34.990Z,29.41
2018-09-10T06:14:04.706Z,29.59
2018-09-10T06:16:34.607Z,29.94
2018-09-10T06:19:05.551Z,29.82
2018-09-10T06:21:35.143Z,28.81
2018-09-10T06:24:04.948Z,29.30
2018-09-10T06:26:34.911Z,29.69
2018-09-10T06:29:04.413Z,29.90
2018-09-10T06:31:34.113Z,29.66
2018-09-10T06:34:04.216Z,29.45
2018-09-10T06:36:33.993Z,30.40
2018-09-10T06:39:03.880Z,30.31
2018-09-10T06:41:33.694Z,30.77
2018-09-10T06:44:03.377Z,30.75
2018-09-10T06:46:32.945Z,31.09
2018-09-10T06:49:02.713Z,30.53
2018-09-10T06:51:32.699Z,31.06
2018-09-10T06:54:02.188Z,30.67
2018-09-10T06:56:31.679Z,31.05
2018-09-10T06:59:01.306Z,31.43
2018-09-10T07:01:30.965Z,31.64
2018-09-10T07:04:00.819Z,32.74
2018-09-10T07:06:30.879Z,32.55
2018-09-10T07:09:00.422Z,31.65
2018-09-10T07:11:30.241Z,31.53
2018-09-10T07:14:00.158Z,32.32
2018-09-10T07:16:29.738Z,31.50
2018-09-10T07:18:59.326Z,32.90
2018-09-10T07:21:29.118Z,32.01
2018-09-10T07:23:59.231Z,32.19
2018-09-10T07:26:28.679Z,32.64
2018-09-10T07:28:58.522Z,32.07
2018-09-10T07:31:28.110Z,33.47
2018-09-10T07:33:57.745Z,32.49
2018-09-10T07:36:27.409Z,33.35
2018-09-10T07:38:57.254Z,33.19
2018-09-10T07:41:27.252Z,32.80
2018-09-10T07:43:57.009Z,33.10
2018-09-10T07:46:26.556Z,33.29
2018-09-10T07:48:56.222Z,32.98
2018-09-10T07:51:25.985Z,33.23
2018-09-10T07:53:55.955Z,33.31
2018-09-10T07:56:25.975Z,32.54
2018-09-10T07:58:55.962Z,33.50
2018-09-10T08:01:25.571Z,33.69
2018-09-10T08:03:55.367Z,33.73
2018-09-10T08:06:25.386Z,33.57
2018-09-10T08:08:55.391Z,34.44
2018-09-10T08:11:25.276Z,34.53
2018-09-10T08:13:54.922Z,32.41
2018-09-10T08:16:24.849Z,33.61
2018-09-10T08:18:54.744Z,33.18
2018-09-10T08:21:24.460Z,33.55
2018-09-10T08:23:54.546Z,34.08
2018-09-10T08:26:24.162Z,34.51
2018-09-10T08:28:53.864Z,34.82
2018-09-10T08:31:23.717Z,35.70
2018-09-10T08:33:53.565Z,36.30
2018-09-10T08:36:23.214Z,35.98
2018-09-10T08:38:53.165Z,35.63
2018-09-10T08:41:23.037Z,35.61
2018-09-10T08:43:52.908Z,35.97
2018-09-10T08:46:22.628Z,35.26
2018-09-10T08:48:52.363Z,35.59
2018-09-10T08:51:22.127Z,35.21
2018-09-10T08:53:51.844Z,36.15
2018-09-10T08:56:21.940Z,35.90
2018-09-10T08:58:51.509Z,36.12
2018-09-10T09:01:21.046Z,37.15
2018-09-10T09:03:50.750Z,36.88
2018-09-10T09:06:20.327Z,36.00
2018-09-10T09:08:50.186Z,34.53
2018-09-10T09:11:19.999Z,34.94
2018-09-10T09:13:50.475Z,35.13
2018-09-10T09:16:20.029Z,35.76
2018-09-10T09:18:49.575Z,36.72
2018-09-10T09:21:19.099Z,36.36
2018-09-10T09:23:49.001Z,36.25
2018-09-10T09:26:18.774Z,35.94
2018-09-10T09:28:48.463Z,36.33
2018-09-10T09:31:18.127Z,35.89
2018-09-10T09:33:47.961Z,35.96
2018-09-10T09:36:23.790Z,36.73
2018-09-10T09:38:58.424Z,36.84
2018-09-10T09:41:33.119Z,37.73
2018-09-10T09:44:07.996Z,36.25
2018-09-10T09:46:38.015Z,36.70
2018-09-10T09:49:07.620Z,37.08
2018-09-10T09:51:37.110Z,35.63
2018-09-10T09:54:07.056Z,36.41
2018-09-10T09:56:37.038Z,37.13
2018-09-10T09:59:07.393Z,36.78
2018-09-10T10:01:41.124Z,36.56
2018-09-10T10:04:11.753Z,36.16
2018-09-10T10:06:41.245Z,35.71
2018-09-10T10:09:12.493Z,35.89
2018-09-10T10:11:42.191Z,35.91
2018-09-10T10:14:12.117Z,35.09
2018-09-10T10:16:41.937Z,35.13
2018-09-10T10:19:11.708Z,34.96
2018-09-10T10:21:41.570Z,34.45
2018-09-10T10:24:11.233Z,34.65
2018-09-10T10:26:40.823Z,35.29
2018-09-10T10:29:10.298Z,35.66
2018-09-10T10:31:39.973Z,35.00
2018-09-10T10:34:09.537Z,35.30
2018-09-10T10:36:39.255Z,35.76
2018-09-10T10:39:09.526Z,35.56
2018-09-10T10:41:40.078Z,36.62
2018-09-10T10:44:10.301Z,36.01
2018-09-10T10:46:39.824Z,35.68
2018-09-10T10:49:09.452Z,35.27
2018-09-10T10:51:39.358Z,36.42
2018-09-10T10:54:09.104Z,35.04
2018-09-10T10:56:38.670Z,35.72
2018-09-10T10:59:08.371Z,35.10
2018-09-10T11:01:38.183Z,35.08
2018-09-10T11:04:07.953Z,34.71
2018-09-10T11:06:37.716Z,34.55
2018-09-10T11:09:08.939Z,33.94
2018-09-10T11:11:38.803Z,34.59
2018-09-10T11:14:08.775Z,35.57
2018-09-10T11:16:38.761Z,34.88
2018-09-10T11:19:08.563Z,33.95
2018-09-10T11:21:38.403Z,34.05
2018-09-10T11:24:07.848Z,34.71
2018-09-10T11:26:37.485Z,35.41
2018-09-10T11:29:07.169Z,34.85
2018-09-10T11:31:36.773Z,34.65
2018-09-10T11:34:06.199Z,35.06
2018-09-10T11:36:35.885Z,34.05
2018-09-10T11:39:06.642Z,34.34
2018-09-10T11:41:36.489Z,35.89
2018-09-10T11:44:06.268Z,34.87
2018-09-10T11:46:36.414Z,34.12
2018-09-10T11:49:06.388Z,33.79
2018-09-10T11:51:36.288Z,33.99
2018-09-10T11:54:05.885Z,34.29
2018-09-10T11:56:36.284Z,33.37
2018-09-10T11:59:07.024Z,32.20
2018-09-10T12:01:36.892Z,31.54
2018-09-10T12:04:06.728Z,31.07
2018-09-10T12:06:36.560Z,30.66
2018-09-10T12:09:07.232Z,30.33
2018-09-10T12:11:37.357Z,30.11
2018-09-10T12:14:07.019Z,29.91
2018-09-10T12:16:36.566Z,30.21
2018-09-10T12:19:06.448Z,29.99
2018-09-10T12:21:36.276Z,30.07
2018-09-10T12:24:05.967Z,29.85
2018-09-10T12:26:35.728Z,29.86
2018-09-10T12:29:05.259Z,29.83
2018-09-10T12:31:34.828Z,29.59
2018-09-10T12:34:04.541Z,29.70
2018-09-10T12:36:34.037Z,29.63
2018-09-10T12:39:03.948Z,29.66
2018-09-10T12:41:33.919Z,29.87
2018-09-10T12:44:03.434Z,29.97
2018-09-10T12:46:33.236Z,29.95
2018-09-10T12:49:02.679Z,29.75
2018-09-10T12:51:32.294Z,29.52
2018-09-10T12:54:02.053Z,29.59
2018-09-10T12:56:32.006Z,29.69
2018-09-10T12:59:01.482Z,29.75
2018-09-10T13:01:31.115Z,29.85
2018-09-10T13:04:00.650Z,29.52
2018-09-10T13:06:30.167Z,29.68
2018-09-10T13:08:59.543Z,29.73
2018-09-10T13:11:29.125Z,29.73
2018-09-10T13:13:58.587Z,29.68
2018-09-10T13:16:29.799Z,29.56
2018-09-10T13:18:59.431Z,29.57
2018-09-10T13:21:28.921Z,29.56
2018-09-10T13:23:58.320Z,29.42
2018-09-10T13:26:27.790Z,29.48
2018-09-10T13:28:57.323Z,29.49
2018-09-10T13:31:27.031Z,29.28
2018-09-10T13:33:56.408Z,29.20
2018-09-10T13:36:26.926Z,29.09
2018-09-10T13:38:56.380Z,29.09
2018-09-10T13:41:25.858Z,29.08
2018-09-10T13:43:55.266Z,29.04
2018-09-10T13:46:24.759Z,28.92
2018-09-10T13:48:54.292Z,28.85
2018-09-10T13:51:23.601Z,28.90
2018-09-10T13:53:53.013Z,28.86
2018-09-10T13:56:22.529Z,28.74
2018-09-10T13:58:52.001Z,28.74
2018-09-10T14:01:21.436Z,28.69
2018-09-10T14:03:50.886Z,28.71
2018-09-10T14:06:20.466Z,28.69
2018-09-10T14:08:49.995Z,28.62
2018-09-10T14:11:19.435Z,28.55
2018-09-10T14:13:48.894Z,28.59
2018-09-10T14:16:18.524Z,28.43
2018-09-10T14:18:48.518Z,28.38
2018-09-10T14:21:18.187Z,28.45
2018-09-10T14:23:47.794Z,28.44
2018-09-10T14:26:17.358Z,28.28
2018-09-10T14:28:46.983Z,28.16
2018-09-10T14:31:16.751Z,28.27
2018-09-10T14:33:46.313Z,28.38
2018-09-10T14:36:15.876Z,28.38
2018-09-10T14:38:45.461Z,28.47
2018-09-10T14:41:15.199Z,28.38
2018-09-10T14:43:44.695Z,28.25
2018-09-10T14:46:14.414Z,28.33
2018-09-10T14:48:43.846Z,28.29
2018-09-10T14:51:13.341Z,28.24
2018-09-10T14:53:42.915Z,28.21
2018-09-10T14:56:12.454Z,28.26
2018-09-10T14:58:41.863Z,28.25
2018-09-10T15:01:11.355Z,28.34
2018-09-10T15:03:40.850Z,28.34
2018-09-10T15:06:10.219Z,28.34
2018-09-10T15:08:39.869Z,28.23
2018-09-10T15:11:09.406Z,28.16
2018-09-10T15:13:39.154Z,28.14
2018-09-10T15:16:08.772Z,28.03
2018-09-10T15:18:38.324Z,27.84
2018-09-10T15:21:08.018Z,27.84
2018-09-10T15:23:37.387Z,27.70
2018-09-10T15:26:07.152Z,27.56
2018-09-10T15:28:36.791Z,27.50
2018-09-10T15:31:06.612Z,27.44
2018-09-10T15:33:36.103Z,27.47
2018-09-10T15:36:05.766Z,27.37
2018-09-10T15:38:35.824Z,27.33
2018-09-10T15:41:05.356Z,27.30
2018-09-10T15:43:35.142Z,27.32
2018-09-10T15:46:05.374Z,27.27
2018-09-10T15:48:35.082Z,27.30
2018-09-10T15:51:04.551Z,27.26
2018-09-10T15:53:33.974Z,27.25
2018-09-10T15:56:03.584Z,27.17
2018-09-10T15:58:33.356Z,27.12
2018-09-10T16:01:02.930Z,27.10
2018-09-10T16:03:32.572Z,26.94
2018-09-10T16:06:02.268Z,26.88
2018-09-10T16:08:32.177Z,26.80
2018-09-10T16:11:02.621Z,26.72
2018-09-10T16:13:32.104Z,26.67
2018-09-10T16:16:01.584Z,26.62
2018-09-10T16:18:31.230Z,26.54
2018-09-10T16:21:01.399Z,26.44
2018-09-10T16:23:31.195Z,26.39
2018-09-10T16:26:00.692Z,26.32
2018-09-10T16:28:30.290Z,26.21
2018-09-10T16:31:00.158Z,26.10
2018-09-10T16:33:29.936Z,25.95
2018-09-10T16:35:59.594Z,25.90
2018-09-10T16:38:29.050Z,25.87
2018-09-10T16:40:58.609Z,25.71
2018-09-10T16:43:28.162Z,25.59
2018-09-10T16:45:57.658Z,25.43
2018-09-10T16:48:27.691Z,25.26
2018-09-10T16:50:57.456Z,25.15
2018-09-10T16:53:27.072Z,25.05
2018-09-10T16:55:56.515Z,24.99
2018-09-10T16:58:26.258Z,24.89
2018-09-10T17:00:55.682Z,24.76
2018-09-10T17:03:25.291Z,24.65
2018-09-10T17:05:54.851Z,24.51
2018-09-10T17:08:24.370Z,24.37
2018-09-10T17:10:53.782Z,24.23
2018-09-10T17:13:23.287Z,24.06
2018-09-10T17:15:52.895Z,23.94
2018-09-10T17:18:22.909Z,23.84
2018-09-10T17:20:52.515Z,23.74
2018-09-10T17:23:21.981Z,23.68
2018-09-10T17:25:53.900Z,23.84
2018-09-10T17:28:23.894Z,23.96
2018-09-10T17:30:53.968Z,24.07
2018-09-10T17:33:23.707Z,24.15
2018-09-10T17:35:53.283Z,24.12
2018-09-10T17:38:22.839Z,24.18
2018-09-10T17:40:52.394Z,24.17
2018-09-10T17:43:21.846Z,24.05
2018-09-10T17:45:51.341Z,23.93
2018-09-10T17:48:20.720Z,23.76
2018-09-10T17:50:50.229Z,23.51
2018-09-10T17:53:19.637Z,23.28
2018-09-10T17:55:49.358Z,23.21
2018-09-10T17:58:18.742Z,23.17
2018-09-10T18:00:48.809Z,23.10
2018-09-10T18:03:18.603Z,23.13
2018-09-10T18:05:48.104Z,23.09
2018-09-10T18:08:17.616Z,22.96
2018-09-10T18:10:47.510Z,22.99
2018-09-10T18:13:17.391Z,22.97
2018-09-10T18:15:46.993Z,22.88
2018-09-10T18:18:16.502Z,22.82
2018-09-10T18:20:46.025Z,22.74
2018-09-10T18:23:15.514Z,22.56
2018-09-10T18:25:45.163Z,22.43
2018-09-10T18:28:14.952Z,22.44
2018-09-10T18:30:44.799Z,22.40
2018-09-10T18:33:14.328Z,22.28
2018-09-10T18:35:43.900Z,22.19
2018-09-10T18:38:13.446Z,22.28
2018-09-10T18:40:43.310Z,22.14
2018-09-10T18:43:13.398Z,22.05
2018-09-10T18:45:43.402Z,22.02
2018-09-10T18:48:13.416Z,22.02
2018-09-10T18:50:43.026Z,22.01
2018-09-10T18:53:12.427Z,22.01
2018-09-10T18:55:41.948Z,21.90
2018-09-10T18:58:11.526Z,21.94
2018-09-10T19:00:41.617Z,21.79
2018-09-10T19:03:11.097Z,21.86
2018-09-10T19:05:40.789Z,21.84
2018-09-10T19:08:10.508Z,21.90
2018-09-10T19:10:40.127Z,21.87
2018-09-10T19:13:09.700Z,21.83
2018-09-10T19:15:39.448Z,21.84
2018-09-10T19:18:09.117Z,21.86
2018-09-10T19:20:38.569Z,21.84
2018-09-10T19:23:08.201Z,21.82
2018-09-10T19:25:37.854Z,21.84
2018-09-10T19:28:07.434Z,21.96
2018-09-10T19:30:36.980Z,21.99
2018-09-10T19:33:06.621Z,21.96
2018-09-10T19:35:36.134Z,22.06
2018-09-10T19:38:05.746Z,22.08
2018-09-10T19:40:35.309Z,22.22
2018-09-10T19:43:04.986Z,22.25
2018-09-10T19:45:34.560Z,22.22
2018-09-10T19:48:04.077Z,22.23
2018-09-10T19:50:33.750Z,22.18
2018-09-10T19:53:03.469Z,22.10
2018-09-10T19:55:33.373Z,22.09
2018-09-10T19:58:02.955Z,22.00
2018-09-10T20:00:32.529Z,22.02
2018-09-10T20:03:02.204Z,22.02
2018-09-10T20:05:32.293Z,22.09
2018-09-10T20:08:01.826Z,22.02
2018-09-10T20:10:31.769Z,22.04
2018-09-10T20:13:01.670Z,22.06
2018-09-10T20:15:31.346Z,22.03
2018-09-10T20:18:00.807Z,22.02
2018-09-10T20:20:30.373Z,22.04
2018-09-10T20:22:59.971Z,22.04
2018-09-10T20:25:29.566Z,22.04
2018-09-10T20:27:59.517Z,22.05
2018-09-10T20:30:29.182Z,22.08
2018-09-10T20:32:58.803Z,22.00
2018-09-10T20:35:28.178Z,22.06
2018-09-10T20:37:57.788Z,22.02
2018-09-10T20:40:27.252Z,22.09
2018-09-10T20:42:56.867Z,22.01
2018-09-10T20:45:26.594Z,21.99
2018-09-10T20:47:56.404Z,21.96
2018-09-10T20:50:25.896Z,21.91
2018-09-10T20:52:55.490Z,21.86
2018-09-10T20:55:25.009Z,21.84
2018-09-10T20:57:54.706Z,21.76
2018-09-10T21:00:24.097Z,21.73
2018-09-10T21:02:53.562Z,21.63
2018-09-10T21:05:24.044Z,21.59
2018-09-10T21:07:53.527Z,21.54
2018-09-10T21:10:23.151Z,21.52
2018-09-10T21:12:52.873Z,21.53
2018-09-10T21:15:22.816Z,21.47
2018-09-10T21:17:52.524Z,21.40
2018-09-10T21:20:22.090Z,21.34
2018-09-10T21:22:51.523Z,21.24
2018-09-10T21:25:21.009Z,21.20
2018-09-10T21:27:50.889Z,21.08
2018-09-10T21:30:20.628Z,21.04
2018-09-10T21:32:50.100Z,20.95
2018-09-10T21:35:19.735Z,20.93
2018-09-10T21:37:49.121Z,20.94
2018-09-10T21:40:18.961Z,20.84
2018-09-10T21:42:48.330Z,20.81
2018-09-10T21:45:17.859Z,20.82
2018-09-10T21:47:47.434Z,20.91
2018-09-10T21:50:17.130Z,20.66
2018-09-10T21:52:47.077Z,20.96
2018-09-10T21:55:16.720Z,20.97
2018-09-10T21:57:46.277Z,21.03
2018-09-10T22:00:16.141Z,21.04
2018-09-10T22:02:45.848Z,21.06
2018-09-10T22:05:15.454Z,20.97
2018-09-10T22:07:45.062Z,20.96
2018-09-10T22:10:14.566Z,20.93
2018-09-10T22:12:44.217Z,20.93
2018-09-10T22:15:14.083Z,20.85
2018-09-10T22:17:43.861Z,20.83
2018-09-10T22:20:14.391Z,20.71
2018-09-10T22:22:43.937Z,20.73
2018-09-10T22:25:13.461Z,20.69
2018-09-10T22:27:43.109Z,20.67
2018-09-10T22:30:12.642Z,20.74
2018-09-10T22:32:42.813Z,20.77
2018-09-10T22:35:12.291Z,20.79
2018-09-10T22:37:41.898Z,20.73
2018-09-10T22:40:11.344Z,20.78
2018-09-10T22:42:40.881Z,20.70
2018-09-10T22:45:10.338Z,20.60
2018-09-10T22:47:39.906Z,20.45
2018-09-10T22:50:09.679Z,20.44
2018-09-10T22:52:39.125Z,20.44
2018-09-10T22:55:08.732Z,20.37
2018-09-10T22:57:38.247Z,20.31
2018-09-10T23:00:08.852Z,20.28
2018-09-10T23:02:38.640Z,20.31
2018-09-10T23:05:08.217Z,20.33
2018-09-10T23:07:37.642Z,20.29
2018-09-10T23:10:07.434Z,20.32
2018-09-10T23:12:36.818Z,20.31
2018-09-10T23:15:06.754Z,20.25
2018-09-10T23:17:36.500Z,20.15
2018-09-10T23:20:06.710Z,20.08
2018-09-10T23:22:36.537Z,20.03
2018-09-10T23:25:06.255Z,19.96
2018-09-10T23:27:35.809Z,19.96
2018-09-10T23:30:06.545Z,19.93
2018-09-10T23:32:36.074Z,19.81
2018-09-10T23:35:05.745Z,19.78
2018-09-10T23:37:35.858Z,19.70
2018-09-10T23:40:05.326Z,19.75
2018-09-10T23:42:34.869Z,19.66
2018-09-10T23:45:04.272Z,19.69
2018-09-10T23:47:33.930Z,19.70
2018-09-10T23:50:03.485Z,19.57
2018-09-10T23:52:32.912Z,19.49
2018-09-10T23:55:02.287Z,19.54
2018-09-10T23:57:31.803Z,19.58
